Terminal Aerodrome Forecast
Issued by NWS

Home | Current Version | Previous Version | Graphics & Text | Print | Product List | Glossary On
Versions: 1 2 3 4 5 6 7 8 9 10 11 12 13 14 15 16
183
FTUS42 KMHX 200531
TAFISO
TAF
KISO 200531Z 2006/2106 19007KT 5SM SHRA SCT006 BKN018
      TEMPO 2007/2009 BKN007
     FM201200 20008KT P6SM VCSH SCT006 BKN023
     FM201700 20010G16KT P6SM OVC070
      AMD LTD TO CLD VIS AND WIND=

USA.gov is the U.S. government's official web portal to all federal, state and local government web resources and services.